createdAt,value
2022-10-11T00:00:55.183Z,7.75
2022-10-11T00:03:22.671Z,7.73
2022-10-11T00:05:50.059Z,7.69
2022-10-11T00:08:17.429Z,7.63
2022-10-11T00:10:44.932Z,7.60
2022-10-11T00:13:12.357Z,7.55
2022-10-11T00:15:40.855Z,7.52
2022-10-11T00:18:09.207Z,7.51
2022-10-11T00:20:36.631Z,7.49
2022-10-11T00:23:04.979Z,7.49
2022-10-11T00:25:33.058Z,7.45
2022-10-11T00:28:00.462Z,7.42
2022-10-11T00:30:28.065Z,7.43
2022-10-11T00:32:55.895Z,7.41
2022-10-11T00:35:23.261Z,7.40
2022-10-11T00:37:50.653Z,7.40
2022-10-11T00:40:21.157Z,7.38
2022-10-11T00:42:49.551Z,7.36
2022-10-11T00:45:39.643Z,7.34
2022-10-11T00:48:27.476Z,7.32
2022-10-11T00:50:58.534Z,7.29
2022-10-11T00:53:30.390Z,7.28
2022-10-11T00:56:07.244Z,7.24
2022-10-11T00:58:36.977Z,7.24
2022-10-11T01:01:05.170Z,7.26
2022-10-11T01:03:35.981Z,7.27
2022-10-11T01:06:04.360Z,7.26
2022-10-11T01:08:34.129Z,7.27
2022-10-11T01:11:03.188Z,7.25
2022-10-11T01:13:52.179Z,7.23
2022-10-11T01:16:49.975Z,7.22
2022-10-11T01:19:58.952Z,7.20
2022-10-11T01:22:48.001Z,7.18
2022-10-11T01:25:26.888Z,7.15
2022-10-11T01:28:19.034Z,7.11
2022-10-11T01:30:47.287Z,7.08
2022-10-11T01:33:44.709Z,7.08
2022-10-11T01:36:32.591Z,7.04
2022-10-11T01:39:10.747Z,7.00
2022-10-11T01:41:47.458Z,6.98
2022-10-11T01:44:15.539Z,6.94
2022-10-11T01:46:43.299Z,6.91
2022-10-11T01:49:10.995Z,6.90
2022-10-11T01:51:47.498Z,6.88
2022-10-11T01:55:08.246Z,6.84
2022-10-11T01:58:30.302Z,6.78
2022-10-11T02:01:32.733Z,6.73
2022-10-11T02:04:22.428Z,6.69
2022-10-11T02:07:16.900Z,6.64
2022-10-11T02:10:11.491Z,6.56
2022-10-11T02:12:57.713Z,6.50
2022-10-11T02:15:30.967Z,6.42
2022-10-11T02:18:06.349Z,6.38
2022-10-11T02:20:37.248Z,6.35
2022-10-11T02:23:14.997Z,6.33
2022-10-11T02:25:45.101Z,6.32
2022-10-11T02:28:25.323Z,6.34
2022-10-11T02:30:55.021Z,6.31
2022-10-11T02:33:37.294Z,6.28
2022-10-11T02:36:19.515Z,6.25
2022-10-11T02:38:57.243Z,6.23
2022-10-11T02:41:38.465Z,6.20
2022-10-11T02:44:26.207Z,6.17
2022-10-11T02:46:54.800Z,6.14
2022-10-11T02:49:22.339Z,6.10
2022-10-11T02:51:49.724Z,6.08
2022-10-11T02:54:17.409Z,6.05
2022-10-11T02:56:44.765Z,6.02
2022-10-11T02:59:12.143Z,5.99
2022-10-11T03:01:39.802Z,5.97
2022-10-11T03:04:07.216Z,5.93
2022-10-11T03:06:34.755Z,5.91
2022-10-11T03:09:02.122Z,5.89
2022-10-11T03:11:29.561Z,5.85
2022-10-11T03:13:57.053Z,5.84
2022-10-11T03:16:24.511Z,5.84
2022-10-11T03:18:51.858Z,5.83
2022-10-11T03:21:19.379Z,5.80
2022-10-11T03:23:46.771Z,5.77
2022-10-11T03:26:14.141Z,5.75
2022-10-11T03:28:41.604Z,5.71
2022-10-11T03:31:09.069Z,5.70
2022-10-11T03:33:36.793Z,5.67
2022-10-11T03:36:05.035Z,5.64
2022-10-11T03:38:33.268Z,5.61
2022-10-11T03:41:00.667Z,5.58
2022-10-11T03:43:28.101Z,5.58
2022-10-11T03:45:55.622Z,5.54
2022-10-11T03:48:23.012Z,5.51
2022-10-11T03:50:50.523Z,5.47
2022-10-11T03:53:18.006Z,5.43
2022-10-11T03:55:45.460Z,5.39
2022-10-11T03:58:12.866Z,5.39
2022-10-11T04:00:40.303Z,5.35
2022-10-11T04:03:07.713Z,5.32
2022-10-11T04:05:35.125Z,5.31
2022-10-11T04:08:02.647Z,5.25
2022-10-11T04:10:31.483Z,5.21
2022-10-11T04:12:58.847Z,5.19
2022-10-11T04:15:26.246Z,5.14
2022-10-11T04:17:53.598Z,5.09
2022-10-11T04:20:20.992Z,5.04
2022-10-11T04:22:48.461Z,5.02
2022-10-11T04:25:15.918Z,4.99
2022-10-11T04:27:43.295Z,4.96
2022-10-11T04:30:11.889Z,4.93
2022-10-11T04:32:39.357Z,4.93
2022-10-11T04:35:07.127Z,4.94
2022-10-11T04:37:35.192Z,4.94
2022-10-11T04:40:03.678Z,4.91
2022-10-11T04:42:31.161Z,4.90
2022-10-11T04:44:58.652Z,4.90
2022-10-11T04:47:26.070Z,4.88
2022-10-11T04:49:53.415Z,4.85
2022-10-11T04:52:25.399Z,4.83
2022-10-11T04:54:53.307Z,4.81
2022-10-11T04:57:20.675Z,4.78
2022-10-11T04:59:50.219Z,4.77
2022-10-11T05:02:18.171Z,4.72
2022-10-11T05:04:46.695Z,4.70
2022-10-11T05:07:14.429Z,4.68
2022-10-11T05:09:41.804Z,4.66
2022-10-11T05:12:10.592Z,4.63
2022-10-11T05:14:37.990Z,4.59
2022-10-11T05:17:05.792Z,4.58
2022-10-11T05:19:34.328Z,4.56
2022-10-11T05:22:01.695Z,4.54
2022-10-11T05:24:29.063Z,4.54
2022-10-11T05:26:59.803Z,4.52
2022-10-11T05:29:30.559Z,4.47
2022-10-11T05:31:57.944Z,4.45
2022-10-11T05:34:25.413Z,4.42
2022-10-11T05:36:52.812Z,4.41
2022-10-11T05:39:20.248Z,4.40
2022-10-11T05:41:48.848Z,4.37
2022-10-11T05:44:16.340Z,4.35
2022-10-11T05:46:43.725Z,4.33
2022-10-11T05:49:12.237Z,4.33
2022-10-11T05:51:39.757Z,4.33
2022-10-11T05:54:07.134Z,4.31
2022-10-11T05:56:34.609Z,4.32
2022-10-11T05:59:02.700Z,4.30
2022-10-11T06:01:30.198Z,4.29
2022-10-11T06:03:57.769Z,4.27
2022-10-11T06:06:25.170Z,4.26
2022-10-11T06:08:52.513Z,4.26
2022-10-11T06:11:25.787Z,4.29
2022-10-11T06:13:57.918Z,4.29
2022-10-11T06:16:26.850Z,4.30
2022-10-11T06:18:56.723Z,4.32
2022-10-11T06:21:24.875Z,4.34
2022-10-11T06:23:56.809Z,4.35
2022-10-11T06:26:28.047Z,4.35
2022-10-11T06:28:56.640Z,4.38
2022-10-11T06:31:24.834Z,4.42
2022-10-11T06:33:52.405Z,4.47
2022-10-11T06:36:19.837Z,4.51
2022-10-11T06:38:47.360Z,4.55
2022-10-11T06:41:23.907Z,4.64
2022-10-11T06:43:51.890Z,4.69
2022-10-11T06:46:23.133Z,4.78
2022-10-11T06:48:51.440Z,4.89
2022-10-11T06:52:22.897Z,4.99
2022-10-11T06:54:50.587Z,5.11
2022-10-11T06:57:18.268Z,5.23
2022-10-11T06:59:45.630Z,5.33
2022-10-11T07:02:13.059Z,5.43
2022-10-11T07:04:40.441Z,5.52
2022-10-11T07:07:07.907Z,5.64
2022-10-11T07:09:35.381Z,5.73
2022-10-11T07:12:02.859Z,5.73
2022-10-11T07:14:30.262Z,5.74
2022-10-11T07:16:57.641Z,5.78
2022-10-11T07:19:26.090Z,5.85
2022-10-11T07:21:53.491Z,5.95
2022-10-11T07:24:20.905Z,6.05
2022-10-11T07:26:48.371Z,6.15
2022-10-11T07:29:16.062Z,6.28
2022-10-11T07:31:44.112Z,6.38
2022-10-11T07:34:13.076Z,6.47
2022-10-11T07:36:40.635Z,6.57
2022-10-11T07:39:08.818Z,6.67
2022-10-11T07:41:39.677Z,6.78
2022-10-11T07:44:09.354Z,6.91
2022-10-11T07:46:37.933Z,7.05
2022-10-11T07:49:05.509Z,7.17
2022-10-11T07:51:33.349Z,7.30
2022-10-11T07:54:07.539Z,7.42
2022-10-11T07:56:36.897Z,7.55
2022-10-11T07:59:04.518Z,7.65
2022-10-11T08:01:33.072Z,7.76
2022-10-11T08:04:00.849Z,7.88
2022-10-11T08:06:32.431Z,8.00
2022-10-11T08:09:02.233Z,8.12
2022-10-11T08:11:37.650Z,8.24
2022-10-11T08:14:11.116Z,8.36
2022-10-11T08:16:40.257Z,8.46
2022-10-11T08:19:07.949Z,8.59
2022-10-11T08:21:35.929Z,8.69
2022-10-11T08:24:05.442Z,8.81
2022-10-11T08:26:34.253Z,8.95
2022-10-11T08:29:05.228Z,9.08
2022-10-11T08:31:35.346Z,9.22
2022-10-11T08:34:02.814Z,9.32
2022-10-11T08:36:30.271Z,9.44
2022-10-11T08:38:58.696Z,9.57
2022-10-11T08:41:41.293Z,9.70
2022-10-11T08:44:26.752Z,9.85
2022-10-11T08:47:30.106Z,10.01
2022-10-11T08:49:59.535Z,10.12
2022-10-11T08:52:51.177Z,10.26
2022-10-11T08:55:43.947Z,10.41
2022-10-11T08:58:18.548Z,10.55
2022-10-11T09:00:50.293Z,10.72
2022-10-11T09:03:32.500Z,10.83
2022-10-11T09:06:28.121Z,10.98
2022-10-11T09:09:21.834Z,11.12
2022-10-11T09:12:05.459Z,11.25
2022-10-11T09:14:48.032Z,11.41
2022-10-11T09:18:04.162Z,11.57
2022-10-11T09:21:25.457Z,11.72
2022-10-11T09:24:13.523Z,11.86
2022-10-11T09:26:56.083Z,11.95
2022-10-11T09:29:58.336Z,12.02
2022-10-11T09:32:40.165Z,12.16
2022-10-11T09:35:20.971Z,12.29
2022-10-11T09:37:59.149Z,12.37
2022-10-11T09:41:01.763Z,12.44
2022-10-11T09:43:29.644Z,12.50
2022-10-11T09:45:57.048Z,12.57
2022-10-11T09:48:33.077Z,12.68
2022-10-11T09:51:12.210Z,12.81
2022-10-11T09:54:14.225Z,12.93
2022-10-11T09:56:46.050Z,13.04
2022-10-11T09:59:30.288Z,13.17
2022-10-11T10:02:21.094Z,13.28
2022-10-11T10:05:18.323Z,13.37
2022-10-11T10:08:09.583Z,13.45
2022-10-11T10:10:43.166Z,13.55
2022-10-11T10:13:25.543Z,13.66
2022-10-11T10:15:57.860Z,13.76
2022-10-11T10:18:42.458Z,13.86
2022-10-11T10:21:14.933Z,13.97
2022-10-11T10:23:43.305Z,14.03
2022-10-11T10:26:24.279Z,14.12
2022-10-11T10:29:10.941Z,14.22
2022-10-11T10:34:58.658Z,14.39
2022-10-11T10:37:45.746Z,14.45
2022-10-11T10:40:22.764Z,14.55
2022-10-11T10:42:50.870Z,14.64
2022-10-11T10:45:24.812Z,14.73
2022-10-11T10:49:18.771Z,14.85
2022-10-11T10:51:39.553Z,14.95
2022-10-11T10:54:31.229Z,15.03
2022-10-11T10:57:05.361Z,15.11
2022-10-11T10:59:51.590Z,15.23
2022-10-11T11:02:48.517Z,15.33
2022-10-11T11:05:48.440Z,15.44
2022-10-11T11:08:25.238Z,15.51
2022-10-11T11:11:40.771Z,15.54
2022-10-11T11:14:49.808Z,15.54
2022-10-11T11:17:29.552Z,15.58
2022-10-11T11:20:21.171Z,15.61
2022-10-11T11:23:06.783Z,15.63
2022-10-11T11:25:56.082Z,15.65
2022-10-11T11:28:49.879Z,15.67
2022-10-11T11:31:51.911Z,15.72
2022-10-11T11:34:26.630Z,15.71
2022-10-11T11:37:20.797Z,15.70
2022-10-11T11:39:52.597Z,15.65
2022-10-11T11:42:55.611Z,15.68
2022-10-11T11:45:29.570Z,15.68
2022-10-11T11:48:10.594Z,15.60
2022-10-11T11:50:43.810Z,15.52
2022-10-11T11:53:35.523Z,15.59
2022-10-11T11:56:31.725Z,15.75
2022-10-11T11:59:27.038Z,15.89
2022-10-11T12:02:15.484Z,16.02
2022-10-11T12:04:45.977Z,16.14
2022-10-11T12:07:19.487Z,16.24
2022-10-11T12:09:52.730Z,16.33
2022-10-11T12:12:37.535Z,16.48
2022-10-11T12:15:26.649Z,16.50
2022-10-11T12:17:57.373Z,16.54
2022-10-11T12:20:37.931Z,16.60
2022-10-11T12:23:28.120Z,16.73
2022-10-11T12:26:29.460Z,16.80
2022-10-11T12:29:18.274Z,16.83
2022-10-11T12:32:14.097Z,16.86
2022-10-11T12:34:45.080Z,16.89
2022-10-11T12:37:18.984Z,16.93
2022-10-11T12:39:49.278Z,16.98
2022-10-11T12:42:36.828Z,17.05
2022-10-11T12:45:13.207Z,17.08
2022-10-11T12:47:54.115Z,17.03
2022-10-11T12:50:37.524Z,16.93
2022-10-11T12:53:28.293Z,16.86
2022-10-11T12:56:07.345Z,16.86
2022-10-11T12:58:46.289Z,16.89
2022-10-11T13:01:25.249Z,16.96
2022-10-11T13:04:10.946Z,16.92
2022-10-11T13:06:50.290Z,16.94
2022-10-11T13:09:29.714Z,17.02
2022-10-11T13:12:19.287Z,17.09
2022-10-11T13:15:09.108Z,17.17
2022-10-11T13:17:39.867Z,17.14
2022-10-11T13:20:17.476Z,17.06
2022-10-11T13:22:51.521Z,16.96
2022-10-11T13:25:23.656Z,16.89
2022-10-11T13:27:54.463Z,16.80
2022-10-11T13:30:31.724Z,16.70
2022-10-11T13:33:01.652Z,16.61
2022-10-11T13:35:34.314Z,16.55
2022-10-11T13:38:02.997Z,16.49
2022-10-11T13:40:31.780Z,16.41
2022-10-11T13:43:00.323Z,16.33
2022-10-11T13:45:32.682Z,16.27
2022-10-11T13:48:00.336Z,16.19
2022-10-11T13:50:35.349Z,16.11
2022-10-11T13:53:11.521Z,15.99
2022-10-11T13:55:41.984Z,15.92
2022-10-11T13:58:19.091Z,15.85
2022-10-11T14:01:00.073Z,15.78
2022-10-11T14:04:02.631Z,15.71
2022-10-11T14:06:56.171Z,15.63
2022-10-11T14:09:34.683Z,15.57
2022-10-11T14:12:30.883Z,15.53
2022-10-11T14:15:05.153Z,15.48
2022-10-11T14:17:44.137Z,15.51
2022-10-11T14:20:29.533Z,15.55
2022-10-11T14:23:00.090Z,15.67
2022-10-11T14:25:28.622Z,15.81
2022-10-11T14:27:56.290Z,15.95
2022-10-11T14:30:27.641Z,16.09
2022-10-11T14:32:59.334Z,16.19
2022-10-11T14:35:32.788Z,16.30
2022-10-11T14:38:00.635Z,16.38
2022-10-11T14:40:30.999Z,16.44
2022-10-11T14:42:58.722Z,16.49
2022-10-11T14:45:26.166Z,16.55
2022-10-11T14:47:53.592Z,16.62
2022-10-11T14:50:32.546Z,16.67
2022-10-11T14:53:00.206Z,16.73
2022-10-11T14:55:29.035Z,16.80
2022-10-11T14:57:56.978Z,16.85
2022-10-11T15:00:28.159Z,16.96
2022-10-11T15:02:57.135Z,17.08
2022-10-11T15:05:32.811Z,17.19
2022-10-11T15:08:06.645Z,17.27
2022-10-11T15:10:38.526Z,17.36
2022-10-11T15:13:07.422Z,17.42
2022-10-11T15:15:40.563Z,17.48
2022-10-11T15:18:13.336Z,17.56
2022-10-11T15:20:44.917Z,17.58
2022-10-11T15:23:12.678Z,17.57
2022-10-11T15:25:41.754Z,17.58
2022-10-11T15:28:25.720Z,17.61
2022-10-11T15:30:54.521Z,17.60
2022-10-11T15:33:23.013Z,17.57
2022-10-11T15:35:50.448Z,17.48
2022-10-11T15:38:25.609Z,17.46
2022-10-11T15:40:54.098Z,17.44
2022-10-11T15:43:24.742Z,17.40
2022-10-11T15:45:53.071Z,17.29
2022-10-11T15:48:22.618Z,17.14
2022-10-11T15:50:50.918Z,17.02
2022-10-11T15:53:28.406Z,16.95
2022-10-11T15:56:01.515Z,16.81
2022-10-11T15:58:36.227Z,16.67
2022-10-11T16:01:11.608Z,16.53
2022-10-11T16:03:39.653Z,16.37
2022-10-11T16:06:08.359Z,16.23
2022-10-11T16:08:36.673Z,16.12
2022-10-11T16:11:07.098Z,15.98
2022-10-11T16:13:35.531Z,15.85
2022-10-11T16:16:06.921Z,15.78
2022-10-11T16:18:36.302Z,15.71
2022-10-11T16:21:13.387Z,15.64
2022-10-11T16:23:40.977Z,15.54
2022-10-11T16:26:13.640Z,15.47
2022-10-11T16:28:41.960Z,15.40
2022-10-11T16:31:14.698Z,15.34
2022-10-11T16:33:48.222Z,15.25
2022-10-11T16:36:36.969Z,15.16
2022-10-11T16:39:16.297Z,15.08
2022-10-11T16:41:44.890Z,15.01
2022-10-11T16:44:19.112Z,14.94
2022-10-11T16:46:48.567Z,14.85
2022-10-11T16:49:25.792Z,14.75
2022-10-11T16:51:57.012Z,14.63
2022-10-11T16:54:30.244Z,14.50
2022-10-11T16:56:59.165Z,14.37
2022-10-11T16:59:27.059Z,14.25
2022-10-11T17:01:55.566Z,14.14
2022-10-11T17:04:23.773Z,14.01
2022-10-11T17:06:51.692Z,13.87
2022-10-11T17:09:21.171Z,13.76
2022-10-11T17:11:48.597Z,13.63
2022-10-11T17:14:16.547Z,13.53
2022-10-11T17:16:44.977Z,13.40
2022-10-11T17:19:15.520Z,13.30
2022-10-11T17:21:43.155Z,13.17
2022-10-11T17:24:10.682Z,13.05
2022-10-11T17:26:38.392Z,12.93
2022-10-11T17:29:05.899Z,12.83
2022-10-11T17:31:33.341Z,12.73
2022-10-11T17:34:01.329Z,12.62
2022-10-11T17:36:34.589Z,12.52
2022-10-11T17:39:07.683Z,12.42
2022-10-11T17:41:36.217Z,12.32
2022-10-11T17:44:04.653Z,12.23
2022-10-11T17:46:32.760Z,12.15
2022-10-11T17:49:04.746Z,12.05
2022-10-11T17:51:34.594Z,11.96
2022-10-11T17:54:02.808Z,11.86
2022-10-11T17:56:35.209Z,11.79
2022-10-11T17:59:05.879Z,11.71
2022-10-11T18:01:33.520Z,11.62
2022-10-11T18:04:04.866Z,11.54
2022-10-11T18:06:39.031Z,11.44
2022-10-11T18:09:07.204Z,11.34
2022-10-11T18:11:35.105Z,11.26
2022-10-11T18:14:05.168Z,11.21
2022-10-11T18:16:33.273Z,11.13
2022-10-11T18:19:04.519Z,11.08
2022-10-11T18:21:34.676Z,11.00
2022-10-11T18:24:08.028Z,10.94
2022-10-11T18:26:35.478Z,10.89
2022-10-11T18:29:04.603Z,10.84
2022-10-11T18:31:34.982Z,10.79
2022-10-11T18:34:05.480Z,10.72
2022-10-11T18:36:33.217Z,10.66
2022-10-11T18:39:06.256Z,10.59
2022-10-11T18:41:35.696Z,10.53
2022-10-11T18:44:07.296Z,10.47
2022-10-11T18:46:36.352Z,10.40
2022-10-11T18:49:04.851Z,10.33
2022-10-11T18:51:39.801Z,10.29
2022-10-11T18:54:10.931Z,10.21
2022-10-11T18:56:39.753Z,10.15
2022-10-11T18:59:08.180Z,10.10
2022-10-11T19:01:41.401Z,10.03
2022-10-11T19:04:11.167Z,9.99
2022-10-11T19:06:43.493Z,9.94
2022-10-11T19:09:17.644Z,9.88
2022-10-11T19:11:45.042Z,9.82
2022-10-11T19:14:16.395Z,9.76
2022-10-11T19:16:49.557Z,9.70
2022-10-11T19:19:20.394Z,9.65
2022-10-11T19:21:48.754Z,9.59
2022-10-11T19:24:20.374Z,9.54
2022-10-11T19:26:48.638Z,9.48
2022-10-11T19:29:20.002Z,9.43
2022-10-11T19:31:55.141Z,9.37
2022-10-11T19:34:27.403Z,9.32
2022-10-11T19:36:56.446Z,9.26
2022-10-11T19:39:25.422Z,9.21
2022-10-11T19:41:52.927Z,9.17
2022-10-11T19:44:20.632Z,9.11
2022-10-11T19:46:52.461Z,9.07
2022-10-11T19:49:24.808Z,9.02
2022-10-11T19:51:53.569Z,8.98
2022-10-11T19:54:21.156Z,8.94
2022-10-11T19:56:48.654Z,8.90
2022-10-11T19:59:16.459Z,8.84
2022-10-11T20:01:48.104Z,8.81
2022-10-11T20:04:50.976Z,8.77
2022-10-11T20:07:09.363Z,8.71
2022-10-11T20:09:36.910Z,8.66
2022-10-11T20:12:04.676Z,8.62
2022-10-11T20:14:32.450Z,8.58
2022-10-11T20:16:59.876Z,8.53
2022-10-11T20:19:31.176Z,8.49
2022-10-11T20:22:01.164Z,8.44
2022-10-11T20:24:32.722Z,8.38
2022-10-11T20:27:03.976Z,8.35
2022-10-11T20:29:31.659Z,8.30
2022-10-11T20:31:59.123Z,8.27
2022-10-11T20:34:27.633Z,8.24
2022-10-11T20:36:55.108Z,8.20
2022-10-11T20:39:23.605Z,8.16
2022-10-11T20:41:51.112Z,8.11
2022-10-11T20:44:18.518Z,8.07
2022-10-11T20:46:46.903Z,8.03
2022-10-11T20:49:14.646Z,7.99
2022-10-11T20:51:42.611Z,7.95
2022-10-11T20:54:12.269Z,7.92
2022-10-11T20:56:40.374Z,7.86
2022-10-11T20:59:08.396Z,7.81
2022-10-11T21:01:40.272Z,7.76
2022-10-11T21:04:14.731Z,7.73
2022-10-11T21:06:42.233Z,7.69
2022-10-11T21:09:13.990Z,7.64
2022-10-11T21:11:44.147Z,7.59
2022-10-11T21:14:11.563Z,7.55
2022-10-11T21:16:39.097Z,7.51
2022-10-11T21:19:06.644Z,7.49
2022-10-11T21:21:34.618Z,7.45
2022-10-11T21:24:03.292Z,7.42
2022-10-11T21:26:31.288Z,7.39
2022-10-11T21:29:03.903Z,7.35
2022-10-11T21:31:34.285Z,7.32
2022-10-11T21:34:03.237Z,7.29
2022-10-11T21:36:30.964Z,7.26
2022-10-11T21:38:58.352Z,7.24
2022-10-11T21:41:29.999Z,7.20
2022-10-11T21:43:58.820Z,7.17
2022-10-11T21:46:54.475Z,7.14
2022-10-11T21:49:20.134Z,7.04
2022-10-11T21:51:47.602Z,6.99
2022-10-11T21:54:15.254Z,6.95
2022-10-11T21:56:42.929Z,6.91
2022-10-11T21:59:12.636Z,6.88
2022-10-11T22:01:41.742Z,6.83
2022-10-11T22:04:11.425Z,6.79
2022-10-11T22:06:39.418Z,6.76
2022-10-11T22:09:08.807Z,6.73
2022-10-11T22:11:37.217Z,6.70
2022-10-11T22:14:04.968Z,6.68
2022-10-11T22:16:34.728Z,6.65
2022-10-11T22:19:02.537Z,6.61
2022-10-11T22:21:30.012Z,6.59
2022-10-11T22:23:57.494Z,6.57
2022-10-11T22:26:30.564Z,6.54
2022-10-11T22:29:00.216Z,6.50
2022-10-11T22:31:29.361Z,6.46
2022-10-11T22:33:59.747Z,6.45
2022-10-11T22:36:30.619Z,6.42
2022-10-11T22:38:59.118Z,6.38
2022-10-11T22:41:26.628Z,6.38
2022-10-11T22:43:54.083Z,6.35
2022-10-11T22:46:21.534Z,6.34
2022-10-11T22:48:49.009Z,6.32
2022-10-11T22:51:17.124Z,6.28
2022-10-11T22:53:44.862Z,6.27
2022-10-11T22:56:12.275Z,6.25
2022-10-11T22:58:40.641Z,6.22
2022-10-11T23:01:11.059Z,6.20
2022-10-11T23:03:38.916Z,6.16
2022-10-11T23:06:06.497Z,6.13
2022-10-11T23:08:34.050Z,6.11
2022-10-11T23:11:07.279Z,6.10
2022-10-11T23:13:35.187Z,6.06
2022-10-11T23:16:09.245Z,6.04
2022-10-11T23:18:37.532Z,6.01
2022-10-11T23:21:07.129Z,5.98
2022-10-11T23:23:35.384Z,5.95
2022-10-11T23:26:10.660Z,5.92
2022-10-11T23:28:38.314Z,5.88
2022-10-11T23:31:16.506Z,5.85
2022-10-11T23:33:46.889Z,5.84
2022-10-11T23:36:22.134Z,5.80
2022-10-11T23:38:54.092Z,5.77
2022-10-11T23:41:24.210Z,5.75
2022-10-11T23:43:51.912Z,5.72
2022-10-11T23:46:19.430Z,5.70
2022-10-11T23:48:48.283Z,5.68
2022-10-11T23:51:16.316Z,5.64
2022-10-11T23:53:43.781Z,5.63
2022-10-11T23:56:11.896Z,5.62
2022-10-11T23:58:39.561Z,5.61
